createdAt,value
2019-05-30T00:01:29.759Z,98055.13
2019-05-30T00:04:36.491Z,98057.78
2019-05-30T00:07:42.912Z,98068.91
2019-05-30T00:10:49.448Z,98070.61
2019-05-30T00:13:56.689Z,98069.09
2019-05-30T00:17:03.282Z,98069.27
2019-05-30T00:20:09.924Z,98064.12
2019-05-30T00:23:16.384Z,98067.86
2019-05-30T00:26:22.833Z,98077.15
2019-05-30T00:29:29.385Z,98072.77
2019-05-30T00:32:36.081Z,98074.66
2019-05-30T00:35:42.644Z,98072.66
2019-05-30T00:38:49.201Z,98077.13
2019-05-30T00:41:56.062Z,98081.70
2019-05-30T00:45:11.235Z,98076.17
2019-05-30T00:48:10.911Z,98081.34
2019-05-30T00:51:17.631Z,98079.84
2019-05-30T00:54:24.076Z,98077.16
2019-05-30T00:57:30.484Z,98068.74
2019-05-30T01:00:43.249Z,98067.58
2019-05-30T01:03:45.416Z,98069.02
2019-05-30T01:06:52.445Z,98065.54
2019-05-30T01:09:59.184Z,98066.74
2019-05-30T01:13:07.266Z,98059.64
2019-05-30T01:16:13.954Z,98059.17
2019-05-30T01:19:20.703Z,98067.05
2019-05-30T01:22:27.100Z,98061.87
2019-05-30T01:25:54.025Z,98062.39
2019-05-30T01:29:01.451Z,98054.00
2019-05-30T01:32:26.117Z,98063.13
2019-05-30T01:35:33.005Z,98057.45
2019-05-30T01:38:39.553Z,98058.50
2019-05-30T01:41:46.102Z,98066.48
2019-05-30T01:44:53.225Z,98062.38
2019-05-30T01:48:00.060Z,98060.05
2019-05-30T01:51:06.920Z,98066.80
2019-05-30T01:54:13.457Z,98065.84
2019-05-30T01:57:19.962Z,98073.55
2019-05-30T02:00:38.437Z,98063.03
2019-05-30T02:03:45.108Z,98063.47
2019-05-30T02:06:51.564Z,98066.66
2019-05-30T02:09:59.172Z,98069.20
2019-05-30T02:13:05.970Z,98066.02
2019-05-30T02:16:12.508Z,98070.33
2019-05-30T02:19:19.040Z,98070.66
2019-05-30T02:22:25.552Z,98075.27
2019-05-30T02:25:32.269Z,98075.28
2019-05-30T02:28:38.688Z,98070.27
2019-05-30T02:31:45.215Z,98074.95
2019-05-30T02:34:52.787Z,98074.95
2019-05-30T02:38:00.857Z,98074.14
2019-05-30T02:41:08.269Z,98085.88
2019-05-30T02:44:15.762Z,98087.97
2019-05-30T02:47:22.715Z,98088.47
2019-05-30T02:50:29.383Z,98082.09
2019-05-30T02:53:36.062Z,98087.63
2019-05-30T02:56:42.641Z,98086.36
2019-05-30T02:59:49.236Z,98081.27
2019-05-30T03:02:55.696Z,98082.55
2019-05-30T03:06:03.877Z,98080.44
2019-05-30T03:09:12.931Z,98083.84
2019-05-30T03:12:20.959Z,98081.34
2019-05-30T03:15:28.460Z,98082.62
2019-05-30T03:18:35.116Z,98082.59
2019-05-30T03:21:41.748Z,98091.80
2019-05-30T03:24:48.328Z,98089.77
2019-05-30T03:27:54.776Z,98091.05
2019-05-30T03:31:05.697Z,98092.77
2019-05-30T03:34:22.836Z,98100.38
2019-05-30T03:37:28.566Z,98097.41
2019-05-30T03:40:29.618Z,98102.45
2019-05-30T03:43:36.100Z,98105.02
2019-05-30T03:46:49.236Z,98105.00
2019-05-30T03:49:57.900Z,98100.79
2019-05-30T03:53:05.292Z,98104.23
2019-05-30T03:56:19.320Z,98111.84
2019-05-30T03:59:35.492Z,98109.67
2019-05-30T04:03:00.365Z,98107.53
2019-05-30T04:06:16.150Z,98116.87
2019-05-30T04:09:25.471Z,98114.33
2019-05-30T04:13:26.270Z,98114.77
2019-05-30T04:16:34.517Z,98115.13
2019-05-30T04:19:41.035Z,98124.00
2019-05-30T04:22:47.585Z,98124.34
2019-05-30T04:25:54.087Z,98131.56
2019-05-30T04:29:00.489Z,98122.60
2019-05-30T04:32:08.425Z,98135.34
2019-05-30T04:35:16.865Z,98133.53
2019-05-30T04:38:23.436Z,98138.58
2019-05-30T04:41:29.889Z,98140.25
2019-05-30T04:44:36.314Z,98143.88
2019-05-30T04:47:42.823Z,98145.92
2019-05-30T04:50:49.492Z,98148.78
2019-05-30T04:53:56.063Z,98149.92
2019-05-30T04:57:02.577Z,98156.20
2019-05-30T05:00:13.015Z,98151.86
2019-05-30T05:03:41.655Z,98158.48
2019-05-30T05:06:27.731Z,98162.73
2019-05-30T05:09:34.681Z,98160.27
2019-05-30T05:12:41.314Z,98160.17
2019-05-30T05:15:47.808Z,98160.44
2019-05-30T05:18:54.280Z,98161.09
2019-05-30T05:22:00.738Z,98159.58
2019-05-30T05:25:07.625Z,98157.28
2019-05-30T05:28:14.063Z,98155.12
2019-05-30T05:31:20.486Z,98152.25
2019-05-30T05:34:26.927Z,98161.58
2019-05-30T05:37:34.759Z,98153.66
2019-05-30T05:40:41.259Z,98155.32
2019-05-30T05:43:47.742Z,98153.49
2019-05-30T05:46:54.115Z,98158.27
2019-05-30T05:50:00.546Z,98163.65
2019-05-30T05:53:07.089Z,98166.70
2019-05-30T05:56:13.646Z,98168.05
2019-05-30T05:59:20.993Z,98167.64
2019-05-30T06:02:27.547Z,98169.63
2019-05-30T06:05:35.651Z,98171.19
2019-05-30T06:08:42.085Z,98174.97
2019-05-30T06:11:49.204Z,98181.19
2019-05-30T06:14:56.259Z,98181.83
2019-05-30T06:18:02.764Z,98189.38
2019-05-30T06:21:09.251Z,98187.00
2019-05-30T06:24:15.679Z,98184.45
2019-05-30T06:27:24.014Z,98190.00
2019-05-30T06:30:30.488Z,98190.80
2019-05-30T06:33:37.078Z,98181.87
2019-05-30T06:36:43.499Z,98188.88
2019-05-30T06:39:51.086Z,98190.84
2019-05-30T06:42:57.598Z,98189.97
2019-05-30T06:46:04.072Z,98183.01
2019-05-30T06:49:10.518Z,98189.16
2019-05-30T06:52:17.619Z,98177.03
2019-05-30T06:55:25.145Z,98187.09
2019-05-30T06:58:47.952Z,98179.77
2019-05-30T07:01:42.644Z,98180.17
2019-05-30T07:04:52.141Z,98177.25
2019-05-30T07:07:57.219Z,98185.75
2019-05-30T07:11:03.888Z,98178.03
2019-05-30T07:14:11.182Z,98183.69
2019-05-30T07:17:17.791Z,98191.02
2019-05-30T07:20:25.516Z,98188.48
2019-05-30T07:23:34.019Z,98191.45
2019-05-30T07:26:40.611Z,98190.85
2019-05-30T07:29:47.115Z,98190.73
2019-05-30T07:32:53.636Z,98185.11
2019-05-30T07:36:00.122Z,98186.18
2019-05-30T07:39:08.956Z,98191.87
2019-05-30T07:42:15.558Z,98191.12
2019-05-30T07:45:24.762Z,98183.70
2019-05-30T07:48:34.319Z,98187.78
2019-05-30T07:51:41.084Z,98199.88
2019-05-30T07:54:47.583Z,98191.56
2019-05-30T07:57:54.118Z,98196.94
2019-05-30T08:01:00.678Z,98190.92
2019-05-30T08:04:07.336Z,98188.97
2019-05-30T08:07:13.858Z,98192.05
2019-05-30T08:10:21.269Z,98199.40
2019-05-30T08:13:28.788Z,98190.59
2019-05-30T08:16:35.962Z,98196.55
2019-05-30T08:19:43.566Z,98191.58
2019-05-30T08:22:50.112Z,98200.48
2019-05-30T08:25:56.620Z,98196.77
2019-05-30T08:29:03.225Z,98191.09
2019-05-30T08:32:10.460Z,98190.66
2019-05-30T08:35:18.310Z,98196.31
2019-05-30T08:38:24.841Z,98184.73
2019-05-30T08:41:33.214Z,98189.83
2019-05-30T08:44:40.152Z,98196.85
2019-05-30T08:47:46.820Z,98195.03
2019-05-30T08:50:53.304Z,98190.43
2019-05-30T08:53:59.977Z,98196.27
2019-05-30T08:57:06.603Z,98195.42
2019-05-30T09:00:15.537Z,98187.58
2019-05-30T09:03:22.076Z,98188.02
2019-05-30T09:06:30.564Z,98188.33
2019-05-30T09:09:40.461Z,98182.17
2019-05-30T09:12:49.726Z,98180.94
2019-05-30T09:15:56.340Z,98181.45
2019-05-30T09:19:03.028Z,98179.85
2019-05-30T09:22:10.711Z,98173.73
2019-05-30T09:25:18.085Z,98169.14
2019-05-30T09:28:24.761Z,98171.02
2019-05-30T09:31:33.530Z,98167.02
2019-05-30T09:34:42.023Z,98165.73
2019-05-30T09:37:49.521Z,98164.52
2019-05-30T09:40:56.127Z,98158.88
2019-05-30T09:44:02.716Z,98157.20
2019-05-30T09:47:09.212Z,98151.64
2019-05-30T09:50:17.721Z,98155.98
2019-05-30T09:53:24.240Z,98155.28
2019-05-30T09:56:30.815Z,98155.99
2019-05-30T09:59:40.144Z,98161.63
2019-05-30T10:02:48.640Z,98154.41
2019-05-30T10:05:55.658Z,98155.30
2019-05-30T10:09:02.205Z,98158.38
2019-05-30T10:12:10.412Z,98153.72
2019-05-30T10:15:19.060Z,98149.67
2019-05-30T10:18:25.623Z,98151.48
2019-05-30T10:21:35.326Z,98145.73
2019-05-30T10:24:43.071Z,98144.25
2019-05-30T10:27:51.026Z,98138.73
2019-05-30T10:30:59.419Z,98144.05
2019-05-30T10:34:07.493Z,98133.50
2019-05-30T10:37:15.118Z,98133.87
2019-05-30T10:40:21.899Z,98121.47
2019-05-30T10:43:28.734Z,98116.20
2019-05-30T10:46:35.575Z,98111.52
2019-05-30T10:49:42.391Z,98120.38
2019-05-30T10:52:49.494Z,98112.34
2019-05-30T10:55:56.533Z,98116.40
2019-05-30T10:59:03.290Z,98117.55
2019-05-30T11:02:10.001Z,98115.75
2019-05-30T11:10:13.604Z,98115.44
2019-05-30T11:13:20.395Z,98111.70
2019-05-30T11:16:26.886Z,98101.22
2019-05-30T11:19:35.605Z,98107.94
2019-05-30T11:22:42.076Z,98105.17
2019-05-30T11:25:50.220Z,98097.43
2019-05-30T11:28:57.061Z,98089.05
2019-05-30T11:32:03.978Z,98082.47
2019-05-30T11:35:10.633Z,98096.06
2019-05-30T11:38:17.010Z,98095.82
2019-05-30T11:41:23.490Z,98087.39
2019-05-30T11:44:29.998Z,98075.72
2019-05-30T11:47:37.568Z,98075.59
2019-05-30T11:50:44.089Z,98075.00
2019-05-30T11:53:51.731Z,98080.66
2019-05-30T11:56:58.410Z,98080.70
2019-05-30T12:00:06.041Z,98076.08
2019-05-30T12:03:12.667Z,98068.09
2019-05-30T12:06:19.121Z,98065.16
2019-05-30T12:09:25.705Z,98061.80
2019-05-30T12:12:32.237Z,98061.51
2019-05-30T12:15:38.705Z,98061.62
2019-05-30T12:18:45.220Z,98054.02
2019-05-30T12:21:51.710Z,98059.58
2019-05-30T12:24:58.181Z,98043.95
2019-05-30T12:28:05.824Z,98048.07
2019-05-30T12:31:12.325Z,98048.70
2019-05-30T12:34:19.320Z,98045.14
2019-05-30T12:37:25.830Z,98036.91
2019-05-30T12:40:32.443Z,98042.52
2019-05-30T12:43:38.927Z,98046.91
2019-05-30T12:46:45.404Z,98043.52
2019-05-30T12:49:53.272Z,98043.38
2019-05-30T12:53:00.371Z,98040.69
2019-05-30T12:56:08.324Z,98039.39
2019-05-30T12:59:14.880Z,98032.20
2019-05-30T13:02:21.425Z,98035.53
2019-05-30T13:05:28.081Z,98032.78
2019-05-30T13:08:37.680Z,98032.06
2019-05-30T13:11:44.110Z,98036.16
2019-05-30T13:14:50.556Z,98037.77
2019-05-30T13:17:57.320Z,98036.78
2019-05-30T13:21:04.243Z,98030.98
2019-05-30T13:24:10.828Z,98026.95
2019-05-30T13:27:17.341Z,98030.31
2019-05-30T13:30:25.468Z,98025.18
2019-05-30T13:33:38.171Z,98035.18
2019-05-30T13:36:42.885Z,98034.34
2019-05-30T13:39:49.299Z,98034.41
2019-05-30T13:42:55.770Z,98028.71
2019-05-30T13:46:02.915Z,98020.45
2019-05-30T13:49:09.832Z,98013.96
2019-05-30T13:52:16.305Z,98019.46
2019-05-30T13:55:22.860Z,98009.15
2019-05-30T13:58:29.338Z,98011.11
2019-05-30T14:01:36.217Z,98008.36
2019-05-30T14:04:42.724Z,98018.59
2019-05-30T14:07:49.173Z,98021.55
2019-05-30T14:10:55.677Z,98010.47
2019-05-30T14:14:02.726Z,98006.38
2019-05-30T14:17:12.375Z,98005.71
2019-05-30T14:20:19.059Z,98013.78
2019-05-30T14:23:25.568Z,98009.52
2019-05-30T14:26:32.020Z,98001.51
2019-05-30T14:29:38.440Z,98002.48
2019-05-30T14:32:45.096Z,98009.69
2019-05-30T14:35:51.608Z,98011.56
2019-05-30T14:38:59.102Z,98008.95
2019-05-30T14:42:07.119Z,97999.98
2019-05-30T14:45:16.798Z,98005.14
2019-05-30T14:48:23.406Z,98004.16
2019-05-30T14:51:30.018Z,98002.29
2019-05-30T14:54:38.079Z,98003.58
2019-05-30T14:57:44.519Z,98006.17
2019-05-30T15:00:51.115Z,98003.11
2019-05-30T15:03:58.563Z,98001.39
2019-05-30T15:07:05.330Z,98001.55
2019-05-30T15:10:15.233Z,97997.48
2019-05-30T15:13:21.897Z,97999.09
2019-05-30T15:16:28.289Z,97994.70
2019-05-30T15:19:34.816Z,97986.78
2019-05-30T15:22:41.277Z,97994.02
2019-05-30T15:25:48.015Z,97989.11
2019-05-30T15:28:54.451Z,97991.47
2019-05-30T15:32:01.182Z,98000.69
2019-05-30T15:35:08.801Z,97994.56
2019-05-30T15:38:15.497Z,97990.08
2019-05-30T15:41:22.120Z,97993.27
2019-05-30T15:44:28.583Z,97993.11
2019-05-30T15:47:37.191Z,97987.17
2019-05-30T15:50:43.714Z,97982.25
2019-05-30T15:53:50.113Z,97978.19
2019-05-30T15:56:56.602Z,97981.69
2019-05-30T16:00:03.096Z,97986.06
2019-05-30T16:03:10.433Z,97978.84
2019-05-30T16:06:17.083Z,97973.64
2019-05-30T16:09:23.573Z,97974.43
2019-05-30T16:12:30.117Z,97979.56
2019-05-30T16:15:36.875Z,97970.58
2019-05-30T16:18:43.301Z,97970.67
2019-05-30T16:21:49.802Z,97980.06
2019-05-30T16:24:56.455Z,97971.23
2019-05-30T16:28:03.064Z,97976.51
2019-05-30T16:31:09.600Z,97980.73
2019-05-30T16:34:16.195Z,97971.66
2019-05-30T16:37:23.828Z,97975.02
2019-05-30T16:40:30.346Z,97974.70
2019-05-30T16:43:36.861Z,97971.41
2019-05-30T16:46:43.385Z,97975.61
2019-05-30T16:49:49.894Z,97979.77
2019-05-30T16:52:56.394Z,97972.91
2019-05-30T16:56:03.894Z,97980.81
2019-05-30T16:59:10.421Z,97974.84
2019-05-30T17:02:17.046Z,97980.36
2019-05-30T17:05:25.482Z,97977.70
2019-05-30T17:08:35.916Z,97973.98
2019-05-30T17:11:42.692Z,97974.23
2019-05-30T17:14:49.391Z,97972.19
2019-05-30T17:17:55.832Z,97968.65
2019-05-30T17:21:02.456Z,97968.42
2019-05-30T17:24:09.009Z,97975.78
2019-05-30T17:27:15.457Z,97980.07
2019-05-30T17:30:23.970Z,97979.14
2019-05-30T17:33:30.430Z,97976.36
2019-05-30T17:36:39.532Z,97983.48
2019-05-30T17:39:46.359Z,97973.05
2019-05-30T17:42:52.858Z,97972.79
2019-05-30T17:45:59.308Z,97980.00
2019-05-30T17:49:06.938Z,97976.72
2019-05-30T17:52:13.320Z,97979.22
2019-05-30T17:55:20.187Z,97976.81
2019-05-30T17:58:27.867Z,97982.73
2019-05-30T18:01:35.924Z,97985.81
2019-05-30T18:04:42.512Z,97986.53
2019-05-30T18:07:48.950Z,97979.63
2019-05-30T18:10:55.425Z,97981.20
2019-05-30T18:14:02.072Z,97991.89
2019-05-30T18:17:09.420Z,97991.13
2019-05-30T18:20:18.414Z,97990.73
2019-05-30T18:23:25.516Z,97986.80
2019-05-30T18:26:34.862Z,97995.58
2019-05-30T18:29:41.378Z,98002.07
2019-05-30T18:32:47.902Z,97993.59
2019-05-30T18:35:54.405Z,98001.09
2019-05-30T18:39:01.106Z,98001.09
2019-05-30T18:42:10.612Z,97996.11
2019-05-30T18:45:24.946Z,97995.33
2019-05-30T18:48:31.896Z,97998.41
2019-05-30T18:51:38.498Z,97999.55
2019-05-30T18:54:44.945Z,98006.31
2019-05-30T18:57:51.448Z,98001.81
2019-05-30T19:00:57.905Z,98003.47
2019-05-30T19:04:04.596Z,98005.62
2019-05-30T19:07:11.215Z,98006.59
2019-05-30T19:10:17.913Z,98004.39
2019-05-30T19:13:25.554Z,98005.48
2019-05-30T19:16:34.558Z,98009.80
2019-05-30T19:19:41.217Z,98011.61
2019-05-30T19:22:47.647Z,98013.73
2019-05-30T19:25:54.069Z,98022.88
2019-05-30T19:29:12.930Z,98021.91
2019-05-30T19:32:19.369Z,98021.61
2019-05-30T19:35:27.022Z,98025.35
2019-05-30T19:38:37.683Z,98029.23
2019-05-30T19:41:55.539Z,98025.34
2019-05-30T19:44:53.278Z,98034.47
2019-05-30T19:47:59.719Z,98040.80
2019-05-30T19:51:06.232Z,98035.98
2019-05-30T19:54:12.701Z,98039.28
2019-05-30T19:57:22.011Z,98041.53
2019-05-30T20:00:29.858Z,98050.28
2019-05-30T20:03:43.595Z,98045.23
2019-05-30T20:06:44.915Z,98048.55
2019-05-30T20:10:00.798Z,98055.51
2019-05-30T20:12:59.792Z,98056.00
2019-05-30T20:16:06.428Z,98060.64
2019-05-30T20:19:13.016Z,98051.50
2019-05-30T20:22:19.488Z,98049.03
2019-05-30T20:25:26.043Z,98056.17
2019-05-30T20:28:34.997Z,98054.86
2019-05-30T20:31:41.521Z,98057.40
2019-05-30T20:34:47.935Z,98051.79
2019-05-30T20:37:54.366Z,98055.19
2019-05-30T20:41:00.784Z,98065.16
2019-05-30T20:44:07.394Z,98064.69
2019-05-30T20:47:14.049Z,98064.34
2019-05-30T20:50:22.470Z,98073.92
2019-05-30T20:53:28.942Z,98074.56
2019-05-30T20:56:37.884Z,98071.67
2019-05-30T20:59:44.368Z,98081.23
2019-05-30T21:02:51.114Z,98080.63
2019-05-30T21:05:59.204Z,98073.21
2019-05-30T21:09:07.843Z,98082.59
2019-05-30T21:12:15.802Z,98088.55
2019-05-30T21:15:23.294Z,98088.65
2019-05-30T21:18:29.929Z,98087.45
2019-05-30T21:21:36.547Z,98080.22
2019-05-30T21:24:43.362Z,98083.88
2019-05-30T21:27:49.836Z,98085.62
2019-05-30T21:30:56.272Z,98084.03
2019-05-30T21:34:02.810Z,98084.22
2019-05-30T21:37:09.390Z,98086.80
2019-05-30T21:40:17.031Z,98082.40
2019-05-30T21:43:23.469Z,98087.69
2019-05-30T21:46:29.970Z,98090.16
2019-05-30T21:49:38.794Z,98085.91
2019-05-30T21:52:46.339Z,98092.41
2019-05-30T21:55:53.237Z,98088.22
2019-05-30T21:58:59.721Z,98089.58
2019-05-30T22:02:06.716Z,98088.20
2019-05-30T22:05:13.331Z,98083.57
2019-05-30T22:08:19.731Z,98091.94
2019-05-30T22:11:26.279Z,98094.68
2019-05-30T22:14:33.208Z,98094.80
2019-05-30T22:17:39.738Z,98094.92
2019-05-30T22:20:46.229Z,98093.31
2019-05-30T22:23:52.808Z,98095.13
2019-05-30T22:26:59.269Z,98093.37
2019-05-30T22:30:06.667Z,98097.51
2019-05-30T22:33:14.957Z,98101.39
2019-05-30T22:36:21.537Z,98093.34
2019-05-30T22:39:28.015Z,98097.64
2019-05-30T22:42:35.965Z,98096.23
2019-05-30T22:45:44.112Z,98094.02
2019-05-30T22:48:50.617Z,98091.50
2019-05-30T22:51:57.477Z,98091.50
2019-05-30T22:55:04.207Z,98088.33
2019-05-30T22:58:10.612Z,98091.44
2019-05-30T23:01:16.997Z,98088.80
2019-05-30T23:04:23.455Z,98097.29
2019-05-30T23:07:29.964Z,98093.05
2019-05-30T23:10:38.040Z,98090.63
2019-05-30T23:13:45.680Z,98086.86
2019-05-30T23:16:52.351Z,98087.27
2019-05-30T23:19:58.826Z,98091.27
2019-05-30T23:23:05.413Z,98085.11
2019-05-30T23:26:11.853Z,98080.98
2019-05-30T23:29:18.362Z,98086.53
2019-05-30T23:32:24.889Z,98091.12
2019-05-30T23:35:31.917Z,98091.38
2019-05-30T23:38:38.383Z,98084.80
2019-05-30T23:41:46.384Z,98080.39
2019-05-30T23:44:53.330Z,98087.36
2019-05-30T23:47:59.859Z,98091.62
2019-05-30T23:51:06.466Z,98087.77
2019-05-30T23:54:13.961Z,98084.47
2019-05-30T23:57:20.417Z,98084.38
